sensor_id;sensor_type;location;lat;lon;timestamp;pressure;altitude;pressure_sealevel;temperature;humidity
66880;BME280;53789;51.392;10.234;2022-09-09T00:00:17;97720.25;;;14.09;75.71
66880;BME280;53789;51.392;10.234;2022-09-09T00:00:44;97719.13;;;14.10;75.77
66880;BME280;53789;51.392;10.234;2022-09-09T00:02:04;97718.44;;;14.14;75.56
66880;BME280;53789;51.392;10.234;2022-09-09T00:02:29;97718.78;;;14.12;76.05
66880;BME280;53789;51.392;10.234;2022-09-09T00:03:00;97718.44;;;14.14;75.13
66880;BME280;53789;51.392;10.234;2022-09-09T00:03:27;97718.09;;;14.15;75.73
66880;BME280;53789;51.392;10.234;2022-09-09T00:04:32;97723.72;;;14.19;75.21
66880;BME280;53789;51.392;10.234;2022-09-09T00:05:29;97727.31;;;14.19;75.76
66880;BME280;53789;51.392;10.234;2022-09-09T00:06:26;97713.34;;;14.16;75.82
66880;BME280;53789;51.392;10.234;2022-09-09T00:07:44;97715.78;;;14.17;76.02
66880;BME280;53789;51.392;10.234;2022-09-09T00:08:18;97713.84;;;14.18;75.31
66880;BME280;53789;51.392;10.234;2022-09-09T00:09:00;97717.84;;;14.20;75.49
66880;BME280;53789;51.392;10.234;2022-09-09T00:09:27;97717.84;;;14.20;75.39
66880;BME280;53789;51.392;10.234;2022-09-09T00:10:28;97715.91;;;14.21;75.12
66880;BME280;53789;51.392;10.234;2022-09-09T00:10:59;97715.09;;;14.20;75.47
66880;BME280;53789;51.392;10.234;2022-09-09T00:11:42;97704.38;;;14.19;75.90
66880;BME280;53789;51.392;10.234;2022-09-09T00:12:10;97708.75;;;14.20;76.02
66880;BME280;53789;51.392;10.234;2022-09-09T00:12:36;97711.53;;;14.20;75.58
66880;BME280;53789;51.392;10.234;2022-09-09T00:13:19;97711.53;;;14.20;75.93
66880;BME280;53789;51.392;10.234;2022-09-09T00:13:52;97710.72;;;14.19;75.87
66880;BME280;53789;51.392;10.234;2022-09-09T00:14:34;97709.56;;;14.20;75.75
66880;BME280;53789;51.392;10.234;2022-09-09T00:15:19;97710.72;;;14.19;75.76
66880;BME280;53789;51.392;10.234;2022-09-09T00:15:49;97706.00;;;14.20;75.86
66880;BME280;53789;51.392;10.234;2022-09-09T00:16:25;97706.00;;;14.20;75.44
66880;BME280;53789;51.392;10.234;2022-09-09T00:16:53;97710.72;;;14.19;75.64
66880;BME280;53789;51.392;10.234;2022-09-09T00:18:17;97702.88;;;14.21;75.66
66880;BME280;53789;51.392;10.234;2022-09-09T00:20:04;97702.53;;;14.23;75.67
66880;BME280;53789;51.392;10.234;2022-09-09T00:21:37;97698.97;;;14.22;75.58
66880;BME280;53789;51.392;10.234;2022-09-09T00:22:28;97705.31;;;14.23;75.42
66880;BME280;53789;51.392;10.234;2022-09-09T00:23:28;97704.50;;;14.22;75.54
66880;BME280;53789;51.392;10.234;2022-09-09T00:23:56;97699.78;;;14.23;75.52
66880;BME280;53789;51.392;10.234;2022-09-09T00:24:28;97707.28;;;14.22;75.68
66880;BME280;53789;51.392;10.234;2022-09-09T00:24:56;97694.25;;;14.23;75.33
66880;BME280;53789;51.392;10.234;2022-09-09T00:25:37;97707.28;;;14.22;75.48
66880;BME280;53789;51.392;10.234;2022-09-09T00:26:32;97702.88;;;14.21;75.19
66880;BME280;53789;51.392;10.234;2022-09-09T00:27:04;97699.66;;;14.19;75.69
66880;BME280;53789;51.392;10.234;2022-09-09T00:27:46;97703.22;;;14.20;75.74
66880;BME280;53789;51.392;10.234;2022-09-09T00:28:18;97706.34;;;14.18;75.51
66880;BME280;53789;51.392;10.234;2022-09-09T00:28:46;97697.25;;;14.18;75.64
66880;BME280;53789;51.392;10.234;2022-09-09T00:29:41;97699.19;;;14.17;75.91
66880;BME280;53789;51.392;10.234;2022-09-09T00:30:27;97698.03;;;14.18;76.20
66880;BME280;53789;51.392;10.234;2022-09-09T00:30:50;97698.03;;;14.18;76.37
66880;BME280;53789;51.392;10.234;2022-09-09T00:31:14;97692.50;;;14.18;76.29
66880;BME280;53789;51.392;10.234;2022-09-09T00:31:36;97700.81;;;14.18;75.88
66880;BME280;53789;51.392;10.234;2022-09-09T00:32:05;97694.47;;;14.18;75.77
66880;BME280;53789;51.392;10.234;2022-09-09T00:32:30;97694.47;;;14.18;76.12
66880;BME280;53789;51.392;10.234;2022-09-09T00:33:00;97696.41;;;14.17;76.03
66880;BME280;53789;51.392;10.234;2022-09-09T00:33:24;97698.03;;;14.18;76.19
66880;BME280;53789;51.392;10.234;2022-09-09T00:33:46;97696.06;;;14.19;76.52
66880;BME280;53789;51.392;10.234;2022-09-09T00:34:22;97695.28;;;14.18;76.18
66880;BME280;53789;51.392;10.234;2022-09-09T00:35:10;97702.44;;;14.19;75.95
66880;BME280;53789;51.392;10.234;2022-09-09T00:35:37;97696.91;;;14.19;76.02
66880;BME280;53789;51.392;10.234;2022-09-09T00:36:00;97692.97;;;14.20;76.19
66880;BME280;53789;51.392;10.234;2022-09-09T00:36:24;97696.91;;;14.19;75.89
66880;BME280;53789;51.392;10.234;2022-09-09T00:36:49;97700.47;;;14.20;75.92
66880;BME280;53789;51.392;10.234;2022-09-09T00:37:11;97698.50;;;14.20;75.57
66880;BME280;53789;51.392;10.234;2022-09-09T00:37:32;97700.47;;;14.20;75.82
66880;BME280;53789;51.392;10.234;2022-09-09T00:37:57;97694.94;;;14.20;75.60
66880;BME280;53789;51.392;10.234;2022-09-09T00:38:28;97700.47;;;14.20;75.45
66880;BME280;53789;51.392;10.234;2022-09-09T00:38:58;97696.56;;;14.21;75.72
66880;BME280;53789;51.392;10.234;2022-09-09T00:39:39;97694.94;;;14.20;75.31
66880;BME280;53789;51.392;10.234;2022-09-09T00:40:11;97704.03;;;14.20;75.70
66880;BME280;53789;51.392;10.234;2022-09-09T00:41:09;97696.56;;;14.21;75.81
66880;BME280;53789;51.392;10.234;2022-09-09T00:42:19;97706.78;;;14.20;75.24
66880;BME280;53789;51.392;10.234;2022-09-09T00:42:43;97699.31;;;14.21;75.54
66880;BME280;53789;51.392;10.234;2022-09-09T00:43:29;97700.94;;;14.22;75.87
66880;BME280;53789;51.392;10.234;2022-09-09T00:44:18;97700.13;;;14.21;76.05
66880;BME280;53789;51.392;10.234;2022-09-09T00:45:09;97701.25;;;14.20;75.74
66880;BME280;53789;51.392;10.234;2022-09-09T00:47:53;97690.69;;;14.22;75.57
66880;BME280;53789;51.392;10.234;2022-09-09T00:48:13;97695.88;;;14.24;75.14
66880;BME280;53789;51.392;10.234;2022-09-09T00:49:34;97694.72;;;14.25;75.64
66880;BME280;53789;51.392;10.234;2022-09-09T00:50:53;97693.19;;;14.27;75.85
66880;BME280;53789;51.392;10.234;2022-09-09T00:52:23;97695.63;;;14.29;75.31
66880;BME280;53789;51.392;10.234;2022-09-09T00:55:40;97692.06;;;14.28;76.23
66880;BME280;53789;51.392;10.234;2022-09-09T00:56:13;97692.06;;;14.28;75.49
66880;BME280;53789;51.392;10.234;2022-09-09T00:57:03;97689.28;;;14.28;75.30
66880;BME280;53789;51.392;10.234;2022-09-09T00:57:29;97694.38;;;14.26;75.19
66880;BME280;53789;51.392;10.234;2022-09-09T00:57:52;97697.16;;;14.26;75.81
66880;BME280;53789;51.392;10.234;2022-09-09T00:58:13;97691.63;;;14.26;75.62
66880;BME280;53789;51.392;10.234;2022-09-09T00:58:33;97688.84;;;14.26;75.56
66880;BME280;53789;51.392;10.234;2022-09-09T00:59:11;97695.19;;;14.27;75.39
66880;BME280;53789;51.392;10.234;2022-09-09T01:00:24;97701.50;;;14.27;75.47
66880;BME280;53789;51.392;10.234;2022-09-09T01:00:53;97692.41;;;14.27;75.37
66880;BME280;53789;51.392;10.234;2022-09-09T01:01:14;97695.19;;;14.27;75.35
66880;BME280;53789;51.392;10.234;2022-09-09T01:01:35;97694.38;;;14.26;74.92
66880;BME280;53789;51.392;10.234;2022-09-09T01:01:55;97687.66;;;14.27;75.18
66880;BME280;53789;51.392;10.234;2022-09-09T01:02:29;97688.50;;;14.28;74.93
66880;BME280;53789;51.392;10.234;2022-09-09T01:04:10;97694.38;;;14.26;75.64
66880;BME280;53789;51.392;10.234;2022-09-09T01:04:13;97694.03;;;14.28;75.72
66880;BME280;53789;51.392;10.234;2022-09-09T01:04:36;97693.19;;;14.27;75.08
66880;BME280;53789;51.392;10.234;2022-09-09T01:05:07;97700.72;;;14.27;75.35
66880;BME280;53789;51.392;10.234;2022-09-09T01:06:26;97695.88;;;14.24;75.35
66880;BME280;53789;51.392;10.234;2022-09-09T01:07:00;97703.72;;;14.22;75.92
66880;BME280;53789;51.392;10.234;2022-09-09T01:07:23;97699.31;;;14.21;75.23
66880;BME280;53789;51.392;10.234;2022-09-09T01:07:48;97702.09;;;14.21;75.79
66880;BME280;53789;51.392;10.234;2022-09-09T01:09:38;97707.03;;;14.15;76.30
66880;BME280;53789;51.392;10.234;2022-09-09T01:10:27;97701.84;;;14.14;75.90
66880;BME280;53789;51.392;10.234;2022-09-09T01:10:52;97709.34;;;14.13;76.37
66880;BME280;53789;51.392;10.234;2022-09-09T01:11:25;97702.97;;;14.13;76.95
66880;BME280;53789;51.392;10.234;2022-09-09T01:11:55;97699.75;;;14.10;76.65
66880;BME280;53789;51.392;10.234;2022-09-09T01:12:55;97694.09;;;14.07;76.76
66880;BME280;53789;51.392;10.234;2022-09-09T01:13:28;97698.81;;;14.06;77.02
66880;BME280;53789;51.392;10.234;2022-09-09T01:14:54;97701.25;;;14.08;76.80
66880;BME280;53789;51.392;10.234;2022-09-09T01:15:26;97698.03;;;14.06;75.98
66880;BME280;53789;51.392;10.234;2022-09-09T01:15:48;97707.91;;;14.07;76.33
66880;BME280;53789;51.392;10.234;2022-09-09T01:16:11;97709.09;;;14.06;76.31
66880;BME280;53789;51.392;10.234;2022-09-09T01:16:32;97704.34;;;14.06;76.75
66880;BME280;53789;51.392;10.234;2022-09-09T01:16:58;97707.47;;;14.05;76.26
66880;BME280;53789;51.392;10.234;2022-09-09T01:18:17;97708.16;;;14.02;76.46
66880;BME280;53789;51.392;10.234;2022-09-09T01:18:49;97713.69;;;14.02;76.27
66880;BME280;53789;51.392;10.234;2022-09-09T01:19:27;97711.25;;;14.00;76.61
66880;BME280;53789;51.392;10.234;2022-09-09T01:20:15;97721.19;;;14.01;76.60
66880;BME280;53789;51.392;10.234;2022-09-09T01:21:44;97712.88;;;14.01;76.48
66880;BME280;53789;51.392;10.234;2022-09-09T01:22:14;97713.22;;;14.00;77.33
66880;BME280;53789;51.392;10.234;2022-09-09T01:26:39;97701.69;;;13.98;76.33
66880;BME280;53789;51.392;10.234;2022-09-09T01:27:04;97696.16;;;13.98;76.82
66880;BME280;53789;51.392;10.234;2022-09-09T01:27:26;97689.84;;;13.97;76.14
66880;BME280;53789;51.392;10.234;2022-09-09T01:27:52;97703.31;;;13.99;76.52
66880;BME280;53789;51.392;10.234;2022-09-09T01:28:21;97697.78;;;13.99;75.89
66880;BME280;53789;51.392;10.234;2022-09-09T01:28:48;97694.22;;;13.98;75.89
66880;BME280;53789;51.392;10.234;2022-09-09T01:29:12;97702.16;;;14.00;75.94
66880;BME280;53789;51.392;10.234;2022-09-09T01:29:33;97700.53;;;13.99;76.20
66880;BME280;53789;51.392;10.234;2022-09-09T01:29:54;97700.53;;;13.99;76.39
66880;BME280;53789;51.392;10.234;2022-09-09T01:30:17;97698.22;;;14.01;76.42
66880;BME280;53789;51.392;10.234;2022-09-09T01:30:40;97703.31;;;13.99;76.26
66880;BME280;53789;51.392;10.234;2022-09-09T01:31:03;97695.03;;;13.99;76.21
66880;BME280;53789;51.392;10.234;2022-09-09T01:31:32;97690.63;;;13.98;76.64
66880;BME280;53789;51.392;10.234;2022-09-09T01:31:57;97693.41;;;13.98;75.95
66880;BME280;53789;51.392;10.234;2022-09-09T01:32:39;97696.66;;;14.00;76.01
66880;BME280;53789;51.392;10.234;2022-09-09T01:32:59;97695.81;;;13.99;76.01
66880;BME280;53789;51.392;10.234;2022-09-09T01:33:20;97693.88;;;14.00;76.16
66880;BME280;53789;51.392;10.234;2022-09-09T01:33:40;97697.44;;;14.00;76.44
66880;BME280;53789;51.392;10.234;2022-09-09T01:34:00;97693.88;;;14.00;76.41
66880;BME280;53789;51.392;10.234;2022-09-09T01:34:24;97699.41;;;14.00;76.44
66880;BME280;53789;51.392;10.234;2022-09-09T01:34:45;97702.16;;;14.00;76.49
66880;BME280;53789;51.392;10.234;2022-09-09T01:35:12;97700.19;;;14.00;76.10
66880;BME280;53789;51.392;10.234;2022-09-09T01:36:12;97694.69;;;14.00;76.22
66880;BME280;53789;51.392;10.234;2022-09-09T01:36:59;97696.28;;;14.01;76.06
66880;BME280;53789;51.392;10.234;2022-09-09T01:37:21;97694.31;;;14.02;76.06
66880;BME280;53789;51.392;10.234;2022-09-09T01:37:41;97698.72;;;14.03;76.51
66880;BME280;53789;51.392;10.234;2022-09-09T01:38:02;97692.38;;;14.02;76.61
66880;BME280;53789;51.392;10.234;2022-09-09T01:38:24;97690.78;;;14.01;75.80
66880;BME280;53789;51.392;10.234;2022-09-09T01:38:45;97691.56;;;14.02;76.37
66880;BME280;53789;51.392;10.234;2022-09-09T01:39:05;97695.94;;;14.03;76.21
66880;BME280;53789;51.392;10.234;2022-09-09T01:39:26;97698.72;;;14.03;76.85
66880;BME280;53789;51.392;10.234;2022-09-09T01:39:47;97693.19;;;14.03;76.49
66880;BME280;53789;51.392;10.234;2022-09-09T01:40:08;97699.53;;;14.03;76.32
66880;BME280;53789;51.392;10.234;2022-09-09T01:40:29;97698.38;;;14.04;76.52
66880;BME280;53789;51.392;10.234;2022-09-09T01:40:50;97694.00;;;14.03;76.00
66880;BME280;53789;51.392;10.234;2022-09-09T01:41:11;97695.28;;;14.06;76.11
66880;BME280;53789;51.392;10.234;2022-09-09T01:41:32;97696.06;;;14.06;76.48
66880;BME280;53789;51.392;10.234;2022-09-09T01:41:54;97695.28;;;14.06;75.86
66880;BME280;53789;51.392;10.234;2022-09-09T01:42:16;97691.69;;;14.05;76.21
66880;BME280;53789;51.392;10.234;2022-09-09T01:42:36;97692.50;;;14.06;75.89
66880;BME280;53789;51.392;10.234;2022-09-09T01:42:56;97692.16;;;14.07;76.25
66880;BME280;53789;51.392;10.234;2022-09-09T01:43:19;97694.56;;;14.09;76.15
66880;BME280;53789;51.392;10.234;2022-09-09T01:43:40;97697.34;;;14.09;76.33
66880;BME280;53789;51.392;10.234;2022-09-09T01:44:02;97697.34;;;14.09;76.62
66880;BME280;53789;51.392;10.234;2022-09-09T01:44:24;97703.66;;;14.09;75.90
66880;BME280;53789;51.392;10.234;2022-09-09T01:44:45;97696.19;;;14.10;76.14
66880;BME280;53789;51.392;10.234;2022-09-09T01:45:06;97698.97;;;14.10;76.38
66880;BME280;53789;51.392;10.234;2022-09-09T01:45:27;97701.72;;;14.10;76.00
66880;BME280;53789;51.392;10.234;2022-09-09T01:45:51;97700.09;;;14.09;75.88
66880;BME280;53789;51.392;10.234;2022-09-09T01:46:13;97700.09;;;14.09;75.66
66880;BME280;53789;51.392;10.234;2022-09-09T01:46:34;97696.50;;;14.08;75.68
66880;BME280;53789;51.392;10.234;2022-09-09T01:46:54;97702.03;;;14.08;75.85
66880;BME280;53789;51.392;10.234;2022-09-09T01:47:15;97698.97;;;14.10;75.92
66880;BME280;53789;51.392;10.234;2022-09-09T01:47:35;97696.19;;;14.10;75.91
66880;BME280;53789;51.392;10.234;2022-09-09T01:47:56;97698.97;;;14.10;75.86
66880;BME280;53789;51.392;10.234;2022-09-09T01:48:18;97707.25;;;14.10;76.04
66880;BME280;53789;51.392;10.234;2022-09-09T01:48:40;97700.91;;;14.09;76.09
66880;BME280;53789;51.392;10.234;2022-09-09T01:49:05;97696.50;;;14.08;75.91
66880;BME280;53789;51.392;10.234;2022-09-09T01:49:26;97696.50;;;14.08;76.11
66880;BME280;53789;51.392;10.234;2022-09-09T01:49:46;97698.13;;;14.09;76.26
66880;BME280;53789;51.392;10.234;2022-09-09T01:50:10;97706.09;;;14.11;76.65
66880;BME280;53789;51.392;10.234;2022-09-09T01:50:31;97701.38;;;14.12;76.08
66880;BME280;53789;51.392;10.234;2022-09-09T01:50:52;97699.41;;;14.12;76.32
66880;BME280;53789;51.392;10.234;2022-09-09T01:51:12;97708.50;;;14.13;76.57
66880;BME280;53789;51.392;10.234;2022-09-09T01:51:34;97700.22;;;14.13;76.28
66880;BME280;53789;51.392;10.234;2022-09-09T01:51:56;97703.47;;;14.15;76.22
66880;BME280;53789;51.392;10.234;2022-09-09T01:52:17;97702.28;;;14.16;76.25
66880;BME280;53789;51.392;10.234;2022-09-09T01:52:37;97702.28;;;14.16;76.09
66880;BME280;53789;51.392;10.234;2022-09-09T01:53:00;97701.16;;;14.17;76.16
66880;BME280;53789;51.392;10.234;2022-09-09T01:53:21;97698.38;;;14.17;75.69
66880;BME280;53789;51.392;10.234;2022-09-09T01:53:43;97704.72;;;14.17;75.84
66880;BME280;53789;51.392;10.234;2022-09-09T01:54:06;97699.66;;;14.19;76.20
66880;BME280;53789;51.392;10.234;2022-09-09T01:54:31;97701.25;;;14.20;76.26
66880;BME280;53789;51.392;10.234;2022-09-09T01:54:53;97702.09;;;14.21;76.23
66880;BME280;53789;51.392;10.234;2022-09-09T01:55:14;97704.84;;;14.21;75.92
66880;BME280;53789;51.392;10.234;2022-09-09T01:55:40;97707.28;;;14.22;76.35
66880;BME280;53789;51.392;10.234;2022-09-09T01:57:43;97698.19;;;14.22;76.10
66880;BME280;53789;51.392;10.234;2022-09-09T01:58:29;97696.22;;;14.22;75.52
66880;BME280;53789;51.392;10.234;2022-09-09T02:00:08;97702.19;;;14.24;76.44
66880;BME280;53789;51.392;10.234;2022-09-09T02:00:33;97707.28;;;14.22;76.25
66880;BME280;53789;51.392;10.234;2022-09-09T02:03:05;97704.50;;;14.22;75.82
66880;BME280;53789;51.392;10.234;2022-09-09T02:03:28;97704.50;;;14.22;75.88
66880;BME280;53789;51.392;10.234;2022-09-09T02:03:54;97707.28;;;14.22;76.35
66880;BME280;53789;51.392;10.234;2022-09-09T02:04:36;97704.50;;;14.22;75.47
66880;BME280;53789;51.392;10.234;2022-09-09T02:05:20;97704.50;;;14.22;76.02
66880;BME280;53789;51.392;10.234;2022-09-09T02:06:18;97699.31;;;14.21;75.99
66880;BME280;53789;51.392;10.234;2022-09-09T02:06:44;97705.66;;;14.21;76.12
66880;BME280;53789;51.392;10.234;2022-09-09T02:07:51;97704.97;;;14.24;75.76
66880;BME280;53789;51.392;10.234;2022-09-09T02:08:26;97703.03;;;14.25;76.01
66880;BME280;53789;51.392;10.234;2022-09-09T02:08:55;97691.63;;;14.26;75.75
66880;BME280;53789;51.392;10.234;2022-09-09T02:09:19;97700.34;;;14.28;75.68
66880;BME280;53789;51.392;10.234;2022-09-09T02:09:50;97701.16;;;14.29;75.74
66880;BME280;53789;51.392;10.234;2022-09-09T02:10:44;97699.22;;;14.30;76.33
66880;BME280;53789;51.392;10.234;2022-09-09T02:11:33;97700.81;;;14.31;76.45
66880;BME280;53789;51.392;10.234;2022-09-09T02:12:02;97706.34;;;14.31;75.75
66880;BME280;53789;51.392;10.234;2022-09-09T02:12:28;97705.53;;;14.30;76.38
66880;BME280;53789;51.392;10.234;2022-09-09T02:13:05;97711.09;;;14.30;76.26
66880;BME280;53789;51.392;10.234;2022-09-09T02:13:29;97707.88;;;14.28;76.81
66880;BME280;53789;51.392;10.234;2022-09-09T02:14:05;97710.97;;;14.26;76.02
66880;BME280;53789;51.392;10.234;2022-09-09T02:14:36;97712.56;;;14.27;76.30
66880;BME280;53789;51.392;10.234;2022-09-09T02:15:05;97709.81;;;14.27;76.06
66880;BME280;53789;51.392;10.234;2022-09-09T02:16:47;97714.09;;;14.25;76.16
66880;BME280;53789;51.392;10.234;2022-09-09T02:17:11;97716.03;;;14.24;76.59
66880;BME280;53789;51.392;10.234;2022-09-09T02:17:36;97709.69;;;14.24;76.86
66880;BME280;53789;51.392;10.234;2022-09-09T02:18:01;97715.56;;;14.22;76.62
66880;BME280;53789;51.392;10.234;2022-09-09T02:18:30;97712.00;;;14.22;76.50
66880;BME280;53789;51.392;10.234;2022-09-09T02:19:01;97715.09;;;14.20;76.52
66880;BME280;53789;51.392;10.234;2022-09-09T02:19:32;97719.81;;;14.20;76.29
66880;BME280;53789;51.392;10.234;2022-09-09T02:20:24;97717.84;;;14.20;75.91
66880;BME280;53789;51.392;10.234;2022-09-09T02:20:46;97704.38;;;14.19;76.59
66880;BME280;53789;51.392;10.234;2022-09-09T02:21:09;97720.16;;;14.18;75.89
66880;BME280;53789;51.392;10.234;2022-09-09T02:21:32;97714.97;;;14.17;76.24
66880;BME280;53789;51.392;10.234;2022-09-09T02:21:56;97721.31;;;14.17;76.54
66880;BME280;53789;51.392;10.234;2022-09-09T02:22:21;97722.47;;;14.16;76.54
66880;BME280;53789;51.392;10.234;2022-09-09T02:22:47;97714.53;;;14.15;76.64
66880;BME280;53789;51.392;10.234;2022-09-09T02:23:11;97720.06;;;14.15;76.69
66880;BME280;53789;51.392;10.234;2022-09-09T02:23:34;97716.47;;;14.14;76.18
66880;BME280;53789;51.392;10.234;2022-09-09T02:23:59;97728.34;;;14.15;76.79
66880;BME280;53789;51.392;10.234;2022-09-09T02:24:21;97725.59;;;14.15;76.64
66880;BME280;53789;51.392;10.234;2022-09-09T02:24:42;97716.47;;;14.14;76.81
66880;BME280;53789;51.392;10.234;2022-09-09T02:25:05;97716.81;;;14.13;76.56
66880;BME280;53789;51.392;10.234;2022-09-09T02:25:29;97724.31;;;14.12;76.11
66880;BME280;53789;51.392;10.234;2022-09-09T02:25:52;97714.03;;;14.13;76.58
66880;BME280;53789;51.392;10.234;2022-09-09T02:26:16;97708.50;;;14.13;76.04
66880;BME280;53789;51.392;10.234;2022-09-09T02:26:41;97714.03;;;14.13;76.36
66880;BME280;53789;51.392;10.234;2022-09-09T02:27:06;97714.03;;;14.13;76.38
66880;BME280;53789;51.392;10.234;2022-09-09T02:27:29;97716.00;;;14.12;75.99
66880;BME280;53789;51.392;10.234;2022-09-09T02:27:50;97712.44;;;14.12;76.12
66880;BME280;53789;51.392;10.234;2022-09-09T02:28:14;97711.28;;;14.13;76.56
66880;BME280;53789;51.392;10.234;2022-09-09T02:28:39;97712.44;;;14.12;76.44
66880;BME280;53789;51.392;10.234;2022-09-09T02:29:04;97712.44;;;14.12;76.63
66880;BME280;53789;51.392;10.234;2022-09-09T02:29:33;97717.63;;;14.13;76.61
66880;BME280;53789;51.392;10.234;2022-09-09T02:29:57;97709.34;;;14.13;76.67
66880;BME280;53789;51.392;10.234;2022-09-09T02:30:19;97712.91;;;14.14;76.26
66880;BME280;53789;51.392;10.234;2022-09-09T02:30:44;97714.03;;;14.13;76.55
66880;BME280;53789;51.392;10.234;2022-09-09T02:31:06;97703.81;;;14.13;76.44
66880;BME280;53789;51.392;10.234;2022-09-09T02:31:27;97714.88;;;14.13;76.62
66880;BME280;53789;51.392;10.234;2022-09-09T02:31:49;97713.69;;;14.14;76.23
66880;BME280;53789;51.392;10.234;2022-09-09T02:32:15;97709.78;;;14.15;76.10
66880;BME280;53789;51.392;10.234;2022-09-09T02:32:40;97713.34;;;14.16;76.03
66880;BME280;53789;51.392;10.234;2022-09-09T02:33:06;97708.66;;;14.16;76.51
66880;BME280;53789;51.392;10.234;2022-09-09T02:33:33;97712.22;;;14.17;76.32
66880;BME280;53789;51.392;10.234;2022-09-09T02:34:01;97709.44;;;14.17;76.43
66880;BME280;53789;51.392;10.234;2022-09-09T02:34:23;97710.25;;;14.17;76.17
66880;BME280;53789;51.392;10.234;2022-09-09T02:34:52;97704.72;;;14.17;76.35
66880;BME280;53789;51.392;10.234;2022-09-09T02:35:19;97706.34;;;14.18;75.92
66880;BME280;53789;51.392;10.234;2022-09-09T02:35:44;97711.88;;;14.18;76.50
66880;BME280;53789;51.392;10.234;2022-09-09T02:36:08;97704.72;;;14.17;76.39
66880;BME280;53789;51.392;10.234;2022-09-09T02:36:33;97707.13;;;14.19;76.39
66880;BME280;53789;51.392;10.234;2022-09-09T02:36:57;97702.44;;;14.19;75.88
66880;BME280;53789;51.392;10.234;2022-09-09T02:37:24;97704.03;;;14.20;75.92
66880;BME280;53789;51.392;10.234;2022-09-09T02:37:46;97698.50;;;14.20;76.06
66880;BME280;53789;51.392;10.234;2022-09-09T02:38:11;97702.88;;;14.21;75.79
66880;BME280;53789;51.392;10.234;2022-09-09T02:38:38;97700.13;;;14.21;76.39
66880;BME280;53789;51.392;10.234;2022-09-09T02:39:03;97698.19;;;14.22;75.64
66880;BME280;53789;51.392;10.234;2022-09-09T02:39:25;97698.97;;;14.22;75.93
66880;BME280;53789;51.392;10.234;2022-09-09T02:39:46;97696.22;;;14.22;75.65
66880;BME280;53789;51.392;10.234;2022-09-09T02:40:10;97710.84;;;14.23;75.64
66880;BME280;53789;51.392;10.234;2022-09-09T02:40:31;97710.03;;;14.22;76.21
66880;BME280;53789;51.392;10.234;2022-09-09T02:40:51;97709.25;;;14.22;76.21
66880;BME280;53789;51.392;10.234;2022-09-09T02:41:12;97712.00;;;14.22;76.12
66880;BME280;53789;51.392;10.234;2022-09-09T02:41:35;97702.09;;;14.21;76.43
66880;BME280;53789;51.392;10.234;2022-09-09T02:41:57;97704.84;;;14.21;76.45
66880;BME280;53789;51.392;10.234;2022-09-09T02:42:17;97705.66;;;14.21;75.98
66880;BME280;53789;51.392;10.234;2022-09-09T02:42:41;97701.25;;;14.20;76.48
66880;BME280;53789;51.392;10.234;2022-09-09T02:43:02;97705.66;;;14.21;76.92
66880;BME280;53789;51.392;10.234;2022-09-09T02:43:22;97705.66;;;14.21;76.80
66880;BME280;53789;51.392;10.234;2022-09-09T02:43:43;97704.50;;;14.22;76.69
66880;BME280;53789;51.392;10.234;2022-09-09T02:44:30;97700.59;;;14.23;76.35
66880;BME280;53789;51.392;10.234;2022-09-09T02:44:50;97702.53;;;14.23;76.15
66880;BME280;53789;51.392;10.234;2022-09-09T02:45:13;97697.00;;;14.23;76.47
66880;BME280;53789;51.392;10.234;2022-09-09T02:47:39;97704.03;;;14.20;76.88
66880;BME280;53789;51.392;10.234;2022-09-09T02:49:00;97700.34;;;14.16;76.21
66880;BME280;53789;51.392;10.234;2022-09-09T02:50:33;97707.81;;;14.16;76.63
66880;BME280;53789;51.392;10.234;2022-09-09T02:51:17;97698.28;;;14.13;76.76
66880;BME280;53789;51.392;10.234;2022-09-09T02:51:52;97697.00;;;14.10;77.05
66880;BME280;53789;51.392;10.234;2022-09-09T02:52:15;97705.28;;;14.10;77.13
66880;BME280;53789;51.392;10.234;2022-09-09T02:52:49;97703.66;;;14.09;77.23
66880;BME280;53789;51.392;10.234;2022-09-09T02:53:19;97700.91;;;14.09;77.02
66880;BME280;53789;51.392;10.234;2022-09-09T02:54:11;97704.81;;;14.08;76.92
66880;BME280;53789;51.392;10.234;2022-09-09T02:54:38;97699.63;;;14.07;77.11
66880;BME280;53789;51.392;10.234;2022-09-09T02:55:07;97702.38;;;14.07;76.96
66880;BME280;53789;51.392;10.234;2022-09-09T02:55:41;97696.06;;;14.06;76.71
66880;BME280;53789;51.392;10.234;2022-09-09T02:56:09;97696.41;;;14.05;77.13
66880;BME280;53789;51.392;10.234;2022-09-09T02:56:41;97701.59;;;14.06;77.06
66880;BME280;53789;51.392;10.234;2022-09-09T02:57:38;97699.63;;;14.07;76.69
66880;BME280;53789;51.392;10.234;2022-09-09T02:58:00;97697.69;;;14.07;77.22
66880;BME280;53789;51.392;10.234;2022-09-09T02:58:22;97709.53;;;14.08;76.73
66880;BME280;53789;51.392;10.234;2022-09-09T02:58:43;97707.56;;;14.08;77.08
66880;BME280;53789;51.392;10.234;2022-09-09T02:59:04;97705.97;;;14.07;77.25
66880;BME280;53789;51.392;10.234;2022-09-09T02:59:26;97696.84;;;14.07;76.74
66880;BME280;53789;51.392;10.234;2022-09-09T02:59:47;97696.06;;;14.06;77.22
66880;BME280;53789;51.392;10.234;2022-09-09T03:00:09;97697.53;;;14.04;76.61
66880;BME280;53789;51.392;10.234;2022-09-09T03:00:30;97696.75;;;14.03;76.39
66880;BME280;53789;51.392;10.234;2022-09-09T03:00:51;97702.28;;;14.03;76.97
66880;BME280;53789;51.392;10.234;2022-09-09T03:01:12;97699.53;;;14.03;76.49
66880;BME280;53789;51.392;10.234;2022-09-09T03:01:32;97700.31;;;14.04;76.82
66880;BME280;53789;51.392;10.234;2022-09-09T03:01:52;97701.13;;;14.04;77.15
66880;BME280;53789;51.392;10.234;2022-09-09T03:02:13;97692.38;;;14.02;77.03
66880;BME280;53789;51.392;10.234;2022-09-09T03:02:33;97705.38;;;14.02;77.28